Time;durP1;ratioP1;P1;durP2;ratioP2;P2;SDS_P1;SDS_P2;PMS_P1;PMS_P2;Temp;Humidity;BMP_temperature;BMP_pressure;BME280_temperature;BME280_humidity;BME280_pressure;Samples;Min_cycle;Max_cycle;Signal;HPM_P1;HPM_P2
2022/03/23 00:00:35;;;;;;;46.30;22.50;;;;;;;3.00;55.45;100093.84;105894;1279;137289;-73
2022/03/23 00:03:08;;;;;;;48.50;22.80;;;;;;;2.95;55.69;100091.66;105791;1279;22860;-73
2022/03/23 00:05:38;;;;;;;45.40;22.10;;;;;;;2.93;55.98;100095.39;105770;1279;25298;-73
2022/03/23 00:08:05;;;;;;;42.90;22.10;;;;;;;2.91;56.16;100094.16;105566;1280;137742;-73
2022/03/23 00:10:34;;;;;;;44.00;22.00;;;;;;;2.89;56.15;100095.27;105930;1277;22600;-73
2022/03/23 00:13:03;;;;;;;50.30;22.30;;;;;;;2.88;56.31;100096.37;105765;1278;137703;-75
2022/03/23 00:15:31;;;;;;;47.20;21.80;;;;;;;2.88;56.34;100090.61;105563;1280;22540;-74
2022/03/23 00:17:58;;;;;;;45.50;20.50;;;;;;;2.89;56.30;100090.95;105824;1277;138031;-72
2022/03/23 00:20:40;;;;;;;43.30;19.70;;;;;;;2.88;56.27;100091.95;105977;1279;22598;-74
2022/03/23 00:23:09;;;;;;;45.30;19.90;;;;;;;2.86;56.36;100092.30;106155;1279;22541;-74
2022/03/23 00:25:37;;;;;;;43.20;23.00;;;;;;;2.84;56.73;100092.25;105878;1278;137912;-74
2022/03/23 00:28:19;;;;;;;51.90;24.70;;;;;;;2.82;56.71;100087.83;105798;1279;22741;-74
2022/03/23 00:30:50;;;;;;;49.30;23.10;;;;;;;2.81;56.80;100085.56;106003;1277;137264;-74
2022/03/23 00:33:22;;;;;;;46.90;20.10;;;;;;;2.82;56.84;100081.71;105866;1280;22600;-73
2022/03/23 00:36:04;;;;;;;48.00;20.70;;;;;;;2.81;56.73;100078.00;105858;1277;137868;-74
2022/03/23 00:38:45;;;;;;;47.10;20.50;;;;;;;2.80;56.96;100073.45;106027;1277;24291;-74
2022/03/23 00:41:13;;;;;;;41.00;19.30;;;;;;;2.79;57.00;100071.45;105884;1278;22545;-74
2022/03/23 00:43:40;;;;;;;39.20;18.90;;;;;;;2.77;57.12;100060.84;105988;1278;137699;-75
2022/03/23 00:46:07;;;;;;;43.10;20.50;;;;;;;2.77;57.15;100057.14;106069;1280;22609;-74
2022/03/23 00:48:49;;;;;;;41.60;19.90;;;;;;;2.74;57.10;100057.20;106006;1278;137393;-74
2022/03/23 00:51:30;;;;;;;34.30;17.00;;;;;;;2.72;57.12;100060.00;105847;1279;24226;-73
2022/03/23 00:53:58;;;;;;;42.10;19.10;;;;;;;2.72;57.53;100058.15;106026;1279;137861;-73
2022/03/23 00:56:25;;;;;;;42.10;19.20;;;;;;;2.69;57.75;100058.42;105883;1280;23921;-73
2022/03/23 00:59:07;;;;;;;43.00;21.70;;;;;;;2.62;57.58;100052.74;105985;1279;22560;-73
2022/03/23 01:01:36;;;;;;;43.90;20.40;;;;;;;2.55;57.77;100050.54;105832;1279;137400;-73
2022/03/23 01:04:05;;;;;;;46.70;20.30;;;;;;;2.51;57.83;100047.36;105865;1279;22597;-73
2022/03/23 01:06:32;;;;;;;40.80;20.40;;;;;;;2.47;57.66;100043.40;105961;1280;137284;-73
2022/03/23 01:09:16;;;;;;;41.40;20.60;;;;;;;2.44;57.84;100041.35;105991;1279;22586;-73
2022/03/23 01:11:57;;;;;;;39.50;18.90;;;;;;;2.41;58.29;100042.23;105561;1281;137836;-73
2022/03/23 01:14:25;;;;;;;42.60;19.40;;;;;;;2.37;58.52;100041.95;105994;1279;22550;-73
2022/03/23 01:17:07;;;;;;;43.80;20.90;;;;;;;2.25;58.51;100043.45;105830;1279;24217;-73
2022/03/23 01:19:48;;;;;;;50.50;21.80;;;;;;;2.05;58.65;100047.90;105824;1279;138417;-73
2022/03/23 01:22:29;;;;;;;46.80;23.10;;;;;;;1.87;58.90;100035.36;106030;1277;30562;-73
2022/03/23 01:25:10;;;;;;;45.30;21.30;;;;;;;1.80;59.43;100032.98;105752;1279;137449;-73
2022/03/23 01:27:40;;;;;;;;;;;;;;;1.76;59.60;100031.28;106036;1277;24352;-73
2022/03/23 01:30:14;;;;;;;34.90;17.30;;;;;;;1.77;59.98;100029.57;105956;1280;124069;-73
2022/03/23 01:32:55;;;;;;;34.80;17.50;;;;;;;1.84;60.20;100027.08;105686;1280;30715;-73
2022/03/23 01:35:36;;;;;;;44.50;21.00;;;;;;;1.92;60.17;100027.56;105907;1279;22557;-73
2022/03/23 01:38:03;;;;;;;44.00;23.20;;;;;;;1.95;59.83;100029.76;105775;1279;137056;-73
2022/03/23 01:40:30;;;;;;;40.60;20.40;;;;;;;1.94;59.99;100028.60;106149;1279;22544;-73
2022/03/23 01:43:11;;;;;;;51.80;23.10;;;;;;;1.91;59.94;100030.69;105625;1279;137384;-73
2022/03/23 01:45:39;;;;;;;43.40;22.30;;;;;;;1.85;59.93;100023.37;105857;1279;22724;-73
2022/03/23 01:48:20;;;;;;;45.40;21.10;;;;;;;1.77;59.96;100020.74;105652;1279;137465;-73
2022/03/23 01:50:47;;;;;;;45.30;22.60;;;;;;;1.71;60.15;100013.46;106027;1279;22558;-74
2022/03/23 01:53:28;;;;;;;43.80;22.50;;;;;;;1.66;60.06;100017.65;105690;1281;31807;-74
2022/03/23 01:55:56;;;;;;;41.80;20.80;;;;;;;1.65;60.48;100018.52;105622;1280;138238;-74
2022/03/23 01:58:38;;;;;;;45.20;22.00;;;;;;;1.69;60.83;100016.39;105915;1280;24025;-74
2022/03/23 02:01:10;;;;;;;48.20;21.20;;;;;;;1.67;61.07;100020.67;105823;1280;137597;-74
2022/03/23 02:03:52;;;;;;;40.30;19.30;;;;;;;1.53;60.85;100020.73;105909;1277;31747;-74
2022/03/23 02:06:33;;;;;;;51.20;23.30;;;;;;;1.31;61.18;100018.04;105805;1279;137250;-74
2022/03/23 02:09:18;;;;;;;51.50;24.00;;;;;;;1.11;61.52;100022.42;105858;1279;24392;-74
2022/03/23 02:11:47;;;;;;;47.30;23.40;;;;;;;1.00;62.30;100023.81;105634;1279;137830;-74
2022/03/23 02:14:16;;;;;;;44.50;22.50;;;;;;;0.95;62.30;100023.94;105827;1281;22567;-74
2022/03/23 02:16:49;;;;;;;45.10;22.10;;;;;;;0.95;62.61;100023.39;105931;1279;24227;-74
2022/03/23 02:19:30;;;;;;;46.70;21.90;;;;;;;0.96;62.49;100016.47;105646;1281;138279;-74
2022/03/23 02:22:11;;;;;;;46.10;22.60;;;;;;;0.99;62.94;100011.78;105796;1279;22648;-74
2022/03/23 02:24:40;;;;;;;47.10;24.00;;;;;;;1.02;63.00;100012.77;105707;1279;137924;-74
2022/03/23 02:27:08;;;;;;;44.80;23.10;;;;;;;1.05;63.00;100012.38;105753;1280;24127;-74
2022/03/23 02:29:36;;;;;;;45.10;23.90;;;;;;;1.07;63.05;100011.14;105930;1280;22639;-73
2022/03/23 02:32:05;;;;;;;46.40;21.60;;;;;;;1.03;62.90;100010.36;105809;1279;137218;-73
2022/03/23 02:34:32;;;;;;;48.40;23.50;;;;;;;0.91;63.07;100012.17;105963;1279;22563;-73
2022/03/23 02:37:13;;;;;;;55.60;24.30;;;;;;;0.83;63.45;100008.06;105568;1279;137411;-73
2022/03/23 02:39:40;;;;;;;50.00;23.60;;;;;;;0.81;63.50;100010.91;105472;1279;24431;-73
2022/03/23 02:42:08;;;;;;;44.20;22.50;;;;;;;0.80;63.33;100011.05;105749;1280;137803;-73
2022/03/23 02:44:35;;;;;;;42.70;22.40;;;;;;;0.78;63.49;100003.58;106078;1278;24246;-73
2022/03/23 02:47:16;;;;;;;47.10;22.30;;;;;;;0.76;63.64;100002.66;105953;1278;22563;-74
2022/03/23 02:49:43;;;;;;;48.20;23.20;;;;;;;0.74;63.77;99996.19;105817;1279;137461;-74
2022/03/23 02:52:25;;;;;;;52.10;24.40;;;;;;;0.73;63.72;99989.70;105944;1279;24384;-74
2022/03/23 03:04:08;;;;;;;46.10;21.60;;;;;;;0.72;63.91;99990.15;105892;1279;25385;-74
2022/03/23 03:06:49;;;;;;;40.00;18.50;;;;;;;0.61;63.82;99993.30;105772;1279;137154;-73
2022/03/23 03:09:19;;;;;;;45.10;21.20;;;;;;;0.47;64.28;99995.45;105795;1279;25543;-73
2022/03/23 03:12:01;;;;;;;51.30;23.40;;;;;;;0.34;64.84;99995.09;105917;1279;137254;-76
2022/03/23 03:14:42;;;;;;;48.00;23.30;;;;;;;0.24;65.25;99996.36;105733;1279;22674;-72
2022/03/23 03:17:23;;;;;;;45.50;23.70;;;;;;;0.19;65.36;99997.15;105630;1279;26629;-73
2022/03/23 03:19:51;;;;;;;48.80;23.70;;;;;;;0.19;65.55;99997.75;105936;1280;138326;-73
2022/03/23 03:22:38;;;;;;;46.90;22.70;;;;;;;0.24;65.86;99993.04;106059;1280;24100;-72
2022/03/23 03:25:17;;;;;;;47.50;23.90;;;;;;;0.31;66.03;99993.96;105884;1279;137918;-72
2022/03/23 03:27:44;;;;;;;46.90;23.10;;;;;;;0.39;66.18;99993.41;105796;1279;22573;-73
2022/03/23 03:30:28;;;;;;;42.20;23.40;;;;;;;0.46;66.20;99990.27;105601;1281;137589;-73
2022/03/23 03:33:09;;;;;;;47.30;23.10;;;;;;;0.51;65.99;99985.30;105797;1279;22630;-73
2022/03/23 03:35:36;;;;;;;50.90;23.90;;;;;;;0.54;66.13;99983.24;105954;1279;25238;-72
2022/03/23 03:38:04;;;;;;;46.80;22.20;;;;;;;0.57;65.74;99979.03;105822;1280;137785;-74
2022/03/23 03:40:45;;;;;;;48.30;23.90;;;;;;;0.57;65.77;99976.34;105801;1280;25475;-73
2022/03/23 03:43:27;;;;;;;48.60;22.20;;;;;;;0.56;65.52;99977.51;105848;1278;137110;-74
2022/03/23 03:46:10;;;;;;;47.20;23.00;;;;;;;0.55;65.75;99975.45;106089;1278;30381;-73
2022/03/23 03:48:40;;;;;;;46.60;22.70;;;;;;;0.54;65.44;99976.07;105785;1279;137126;-74
2022/03/23 03:51:11;;;;;;;52.30;24.10;;;;;;;0.51;65.66;99980.31;105732;1279;24860;-74
2022/03/23 03:53:52;;;;;;;42.30;21.20;;;;;;;0.43;65.76;99990.12;105671;1279;137431;-74
2022/03/23 03:56:19;;;;;;;47.40;23.20;;;;;;;0.27;65.37;99992.89;105842;1279;22575;-74
2022/03/23 03:58:48;;;;;;;47.20;24.40;;;;;;;0.05;65.54;99992.17;105832;1280;24080;-74
2022/03/23 04:01:29;;;;;;;47.00;24.00;;;;;;;-0.19;65.96;99991.68;105723;1279;137186;-74
2022/03/23 04:03:56;;;;;;;48.40;24.70;;;;;;;-0.37;66.54;99993.10;105881;1280;24434;-73
2022/03/23 04:06:23;;;;;;;49.80;23.70;;;;;;;-0.47;67.01;99990.23;105771;1280;138508;-73
2022/03/23 04:08:51;;;;;;;49.80;23.80;;;;;;;-0.54;67.13;99987.63;105829;1280;22558;-73
2022/03/23 04:11:31;;;;;;;43.40;22.20;;;;;;;-0.58;67.66;99987.10;105643;1280;22600;-73
2022/03/23 04:13:59;;;;;;;49.40;22.90;;;;;;;-0.60;68.30;99991.21;105767;1280;137160;-73
2022/03/23 04:16:26;;;;;;;48.20;22.00;;;;;;;-0.59;68.71;99989.80;105930;1279;22539;-73
2022/03/23 04:18:53;;;;;;;40.40;20.20;;;;;;;-0.55;68.96;99987.73;105711;1277;137700;-73
2022/03/23 04:21:21;;;;;;;47.20;22.30;;;;;;;-0.53;68.87;99987.39;105747;1280;22568;-73
2022/03/23 04:24:02;;;;;;;43.20;21.90;;;;;;;-0.52;69.02;99986.08;105803;1280;137814;-73
2022/03/23 04:26:46;;;;;;;42.50;21.70;;;;;;;-0.51;69.20;99992.18;105810;1280;25304;-73
2022/03/23 04:29:16;;;;;;;43.10;21.10;;;;;;;-0.49;69.21;99990.05;105855;1280;25391;-73
2022/03/23 04:32:00;;;;;;;43.90;21.60;;;;;;;-0.45;69.13;99987.54;105751;1280;137773;-74
2022/03/23 04:34:41;;;;;;;42.40;20.50;;;;;;;-0.41;69.19;99987.55;105744;1280;25368;-76
2022/03/23 04:37:22;;;;;;;49.80;22.80;;;;;;;-0.38;69.11;99983.73;105611;1279;137748;-73
2022/03/23 04:39:49;;;;;;;49.00;20.60;;;;;;;-0.36;69.23;99982.83;105759;1279;25347;-73
2022/03/23 04:42:17;;;;;;;46.90;22.30;;;;;;;-0.36;69.23;99976.77;105631;1279;138100;-74
2022/03/23 04:44:44;;;;;;;46.10;23.50;;;;;;;-0.34;69.30;99979.34;105667;1279;24529;-73
2022/03/23 04:47:11;;;;;;;47.70;23.40;;;;;;;-0.34;69.64;99976.27;105714;1279;22650;-73
2022/03/23 04:49:39;;;;;;;49.70;24.70;;;;;;;-0.33;69.57;99972.44;105681;1279;137574;-73
2022/03/23 04:52:20;;;;;;;45.60;22.40;;;;;;;-0.30;69.68;99972.00;105645;1280;22743;-73
2022/03/23 04:54:48;;;;;;;56.80;26.60;;;;;;;-0.24;69.75;99967.52;105762;1279;137842;-73
2022/03/23 04:57:16;;;;;;;54.50;24.70;;;;;;;-0.17;69.80;99967.96;105652;1281;24317;-73
2022/03/23 04:59:44;;;;;;;49.30;24.00;;;;;;;-0.10;69.81;99968.42;105751;1279;138143;-73
2022/03/23 05:02:11;;;;;;;56.90;26.70;;;;;;;-0.04;69.58;99966.23;105768;1281;22634;-73
2022/03/23 05:04:52;;;;;;;50.70;25.10;;;;;;;0.03;69.57;99964.85;105752;1280;22563;-74
2022/03/23 05:07:20;;;;;;;59.50;26.10;;;;;;;0.08;69.33;99964.27;105786;1278;137400;-74
2022/03/23 05:09:47;;;;;;;53.00;24.00;;;;;;;0.12;69.05;99964.07;105836;1280;22545;-73
2022/03/23 05:12:14;;;;;;;53.10;24.20;;;;;;;0.15;69.12;99965.20;105754;1279;137193;-73
2022/03/23 05:14:55;;;;;;;46.80;22.50;;;;;;;0.18;68.91;99962.44;105827;1279;22698;-73
2022/03/23 05:17:23;;;;;;;51.60;24.00;;;;;;;0.20;68.75;99956.17;105809;1279;25322;-73
2022/03/23 05:19:50;;;;;;;54.40;23.10;;;;;;;0.23;68.87;99958.60;105871;1280;137230;-73
2022/03/23 05:22:32;;;;;;;47.70;22.90;;;;;;;0.24;68.57;99954.80;105836;1280;22563;-73
2022/03/23 05:25:13;;;;;;;50.80;24.60;;;;;;;0.28;68.80;99968.44;105754;1280;138060;-73
2022/03/23 05:27:42;;;;;;;45.50;23.70;;;;;;;0.25;68.35;99966.24;105803;1279;24236;-73
2022/03/23 05:30:11;;;;;;;52.20;24.50;;;;;;;0.21;67.98;99965.94;105850;1279;137555;-73
2022/03/23 05:32:52;;;;;;;56.90;25.50;;;;;;;0.12;67.54;99966.89;105808;1279;25336;-73
2022/03/23 05:35:33;;;;;;;56.30;24.90;;;;;;;-0.01;67.43;99967.70;105833;1278;24233;-73
2022/03/23 05:38:00;;;;;;;54.30;22.60;;;;;;;-0.12;67.63;99964.27;105605;1280;137219;-76
2022/03/23 05:40:28;;;;;;;55.50;26.40;;;;;;;-0.23;68.05;99962.77;105955;1279;25379;-76
2022/03/23 05:43:09;;;;;;;56.70;23.50;;;;;;;-0.32;68.54;99961.98;105784;1279;137208;-74
2022/03/23 05:45:36;;;;;;;50.00;24.70;;;;;;;-0.36;68.54;99960.58;106133;1278;22535;-74
2022/03/23 05:48:18;;;;;;;57.80;25.70;;;;;;;-0.38;68.92;99959.62;105798;1279;137678;-74
2022/03/23 05:50:45;;;;;;;58.10;26.80;;;;;;;-0.35;69.22;99956.72;106003;1279;22642;-74
2022/03/23 05:53:26;;;;;;;53.70;26.90;;;;;;;-0.28;69.38;99958.77;105713;1281;22548;-74
2022/03/23 05:56:08;;;;;;;56.10;25.00;;;;;;;-0.20;69.80;99951.41;105885;1279;137620;-74
2022/03/23 05:58:35;;;;;;;55.80;25.70;;;;;;;-0.11;70.07;99949.71;105955;1279;23186;-74
2022/03/23 06:01:03;;;;;;;55.10;26.40;;;;;;;-0.01;70.14;99948.61;105949;1279;138014;-74
2022/03/23 06:03:31;;;;;;;58.40;27.90;;;;;;;0.09;69.96;99951.30;105786;1279;22557;-74
2022/03/23 06:06:12;;;;;;;57.70;27.00;;;;;;;0.20;69.79;99949.94;105811;1281;137615;-74
2022/03/23 06:08:39;;;;;;;64.10;28.40;;;;;;;0.30;69.74;99950.45;106237;1278;24228;-74
2022/03/23 06:11:07;;;;;;;57.30;26.00;;;;;;;0.40;69.74;99950.95;105836;1280;22819;-76
2022/03/23 06:13:34;;;;;;;57.00;27.40;;;;;;;0.50;69.36;99953.08;105677;1280;137271;-76
2022/03/23 06:16:02;;;;;;;60.40;27.00;;;;;;;0.60;69.09;99950.70;105846;1277;25359;-74
2022/03/23 06:18:43;;;;;;;56.30;27.70;;;;;;;0.69;69.29;99952.55;105631;1279;137358;-75
2022/03/23 06:21:11;;;;;;;54.00;27.20;;;;;;;0.72;69.43;99953.64;105764;1279;26588;-75
2022/03/23 06:23:52;;;;;;;55.20;25.30;;;;;;;0.76;69.81;99955.45;105574;1281;137284;-75
2022/03/23 06:26:19;;;;;;;53.70;24.60;;;;;;;0.74;70.51;99953.63;105615;1281;25256;-74
2022/03/23 06:29:00;;;;;;;53.00;26.80;;;;;;;0.74;70.61;99959.02;105593;1279;24371;-76
2022/03/23 06:31:27;;;;;;;64.60;29.80;;;;;;;0.76;70.96;99957.39;105688;1280;137369;-75
2022/03/23 06:33:55;;;;;;;67.30;29.50;;;;;;;0.83;70.98;99959.45;105801;1280;22695;-75
2022/03/23 06:36:23;;;;;;;58.40;28.40;;;;;;;0.91;70.80;99957.04;105734;1278;137864;-74
2022/03/23 06:39:05;;;;;;;65.30;28.00;;;;;;;1.06;70.28;99961.42;105649;1278;24320;-74
2022/03/23 06:41:33;;;;;;;58.00;27.80;;;;;;;1.21;70.16;99966.59;105775;1277;22561;-75
2022/03/23 06:44:00;;;;;;;62.10;29.70;;;;;;;1.36;70.15;99965.36;105520;1279;137091;-75
2022/03/23 06:46:41;;;;;;;62.20;30.00;;;;;;;1.53;69.87;99967.98;105437;1279;23915;-74
2022/03/23 06:49:09;;;;;;;60.80;29.40;;;;;;;1.67;69.73;99967.66;105504;1278;137478;-75
2022/03/23 06:51:36;;;;;;;57.90;30.00;;;;;;;1.81;69.17;99969.53;105739;1277;22561;-74
2022/03/23 06:54:03;;;;;;;60.40;29.80;;;;;;;1.94;68.62;99969.35;105558;1280;137347;-74
2022/03/23 06:56:45;;;;;;;55.60;29.00;;;;;;;2.06;68.20;99962.92;105838;1279;25310;-74
2022/03/23 06:59:12;;;;;;;59.40;28.90;;;;;;;2.19;68.01;99967.42;106068;1278;22574;-74
2022/03/23 07:01:39;;;;;;;57.30;27.60;;;;;;;2.30;67.62;99973.11;105891;1278;137698;-74
2022/03/23 07:04:06;;;;;;;59.30;28.90;;;;;;;2.42;67.54;99971.93;105864;1280;22584;-74
2022/03/23 07:06:33;;;;;;;54.10;27.40;;;;;;;2.52;67.06;99969.96;105977;1278;137389;-74
2022/03/23 07:12:04;;;;;;;60.10;28.50;;;;;;;2.79;66.27;99966.91;105797;1280;137479;-74
2022/03/23 07:14:35;;;;;;;61.70;28.80;;;;;;;2.90;65.83;99965.74;105938;1281;23007;-77
2022/03/23 07:17:05;;;;;;;59.30;29.70;;;;;;;3.01;65.27;99967.09;105843;1281;25238;-74
2022/03/23 07:19:33;;;;;;;56.50;27.70;;;;;;;3.13;65.16;99964.46;105862;1279;137394;-77
2022/03/23 07:22:00;;;;;;;64.70;27.60;;;;;;;3.23;64.95;99958.79;105735;1279;23933;-77
2022/03/23 07:24:28;;;;;;;70.00;32.90;;;;;;;3.37;64.90;99965.33;105761;1278;137486;-75
2022/03/23 07:26:55;;;;;;;73.40;34.10;;;;;;;3.49;64.56;99961.21;106056;1277;23269;-75
2022/03/23 07:29:22;;;;;;;72.70;32.90;;;;;;;3.61;64.28;99956.21;105924;1280;22731;-75
2022/03/23 07:31:50;;;;;;;72.90;32.50;;;;;;;3.74;63.82;99959.32;105634;1279;137150;-75
2022/03/23 07:34:19;;;;;;;59.70;28.60;;;;;;;3.87;63.73;99957.43;105725;1279;25275;-75
2022/03/23 07:36:48;;;;;;;68.60;30.70;;;;;;;4.03;63.58;99956.63;105772;1279;137104;-75
2022/03/23 07:39:20;;;;;;;;;;;;;;;4.18;63.65;99953.11;106078;1281;22575;-75
2022/03/23 07:42:02;;;;;;;65.90;28.80;;;;;;;4.35;63.25;99952.05;105690;1280;123615;-75
2022/03/23 07:44:38;;;;;;;63.30;28.80;;;;;;;4.49;63.12;99948.01;105891;1281;25364;-75
2022/03/23 07:47:10;;;;;;;68.90;29.00;;;;;;;4.63;62.66;99950.46;105841;1279;25251;-75
2022/03/23 07:50:37;;;;;;;62.50;30.20;;;;;;;4.78;62.44;99946.42;105981;1279;137321;-74
2022/03/23 07:53:59;;;;;;;63.60;26.60;;;;;;;5.04;61.76;99942.23;105751;1281;137883;-74
2022/03/23 07:56:34;;;;;;;61.10;27.40;;;;;;;5.22;61.30;99938.84;105894;1281;23913;-74
2022/03/23 07:59:01;;;;;;;55.50;29.60;;;;;;;5.39;60.77;99934.60;105919;1281;22560;-74
2022/03/23 08:01:28;;;;;;;50.70;24.80;;;;;;;5.53;60.11;99936.70;105811;1281;137289;-74
2022/03/23 08:04:11;;;;;;;61.40;27.40;;;;;;;5.71;59.46;99933.61;105967;1279;29691;-74
2022/03/23 08:06:53;;;;;;;48.10;25.00;;;;;;;5.87;58.74;99934.55;105687;1279;137136;-74
2022/03/23 08:09:34;;;;;;;47.60;24.30;;;;;;;6.07;57.85;99934.50;105767;1279;22550;-73
2022/03/23 08:12:02;;;;;;;57.10;25.80;;;;;;;6.26;57.67;99933.73;105790;1281;137897;-73
2022/03/23 08:14:29;;;;;;;50.70;24.40;;;;;;;6.45;56.90;99933.30;105826;1280;22543;-73
2022/03/23 08:16:56;;;;;;;50.10;26.60;;;;;;;6.64;56.41;99930.14;105975;1281;27584;-73
2022/03/23 08:19:24;;;;;;;48.50;25.30;;;;;;;6.80;55.82;99920.81;105764;1280;138081;-72
2022/03/23 08:22:05;;;;;;;40.80;21.30;;;;;;;7.00;54.95;99920.98;106949;1280;22572;-72
2022/03/23 08:24:32;;;;;;;41.00;22.80;;;;;;;7.18;53.79;99915.55;106848;1278;137094;-73
2022/03/23 08:27:00;;;;;;;39.20;20.30;;;;;;;7.37;52.87;99920.27;106137;1277;22602;-72
2022/03/23 08:29:27;;;;;;;39.50;20.20;;;;;;;7.55;52.22;99912.48;105818;1281;24717;-72
2022/03/23 08:31:55;;;;;;;35.80;18.80;;;;;;;7.74;50.89;99914.63;106078;1277;137592;-71
2022/03/23 08:34:22;;;;;;;39.60;19.10;;;;;;;7.95;50.45;99913.29;106047;1280;22587;-72
2022/03/23 08:36:49;;;;;;;38.60;16.90;;;;;;;8.14;49.90;99910.05;106623;1278;137631;-72
2022/03/23 08:39:30;;;;;;;29.90;15.40;;;;;;;8.33;49.18;99910.86;106734;1278;22572;-72
2022/03/23 08:41:58;;;;;;;30.20;15.00;;;;;;;8.53;47.86;99905.34;106217;1277;138224;-71
2022/03/23 08:44:40;;;;;;;34.20;15.20;;;;;;;8.75;46.43;99899.38;106757;1277;22581;-72
2022/03/23 08:47:22;;;;;;;21.00;11.80;;;;;;;8.97;45.19;99896.66;107060;1277;24216;-72
2022/03/23 08:49:50;;;;;;;25.20;12.30;;;;;;;9.17;44.26;99896.27;106529;1278;137467;-72
2022/03/23 08:52:17;;;;;;;31.60;16.60;;;;;;;9.38;44.32;99897.18;106627;1279;23045;-72
2022/03/23 08:54:45;;;;;;;34.40;17.40;;;;;;;9.58;44.37;99901.29;106434;1277;137460;-72
2022/03/23 08:57:12;;;;;;;32.30;16.80;;;;;;;9.78;44.51;99900.56;106152;1278;22553;-72
2022/03/23 08:59:39;;;;;;;33.30;15.90;;;;;;;9.97;43.68;99897.80;106035;1278;23783;-72
2022/03/23 09:02:07;;;;;;;31.50;16.10;;;;;;;10.17;42.80;99890.27;105924;1277;137215;-73
2022/03/23 09:04:34;;;;;;;30.90;15.30;;;;;;;10.36;42.14;99892.59;105890;1278;22591;-73
2022/03/23 09:07:02;;;;;;;35.30;16.10;;;;;;;10.51;41.53;99885.43;106139;1279;137716;-73
2022/03/23 09:09:29;;;;;;;26.70;15.10;;;;;;;10.69;41.02;99892.17;105712;1281;25305;-73
2022/03/23 09:11:56;;;;;;;24.30;14.10;;;;;;;10.84;40.34;99887.14;105460;1281;137716;-73
2022/03/23 09:14:23;;;;;;;36.70;16.10;;;;;;;11.02;39.64;99885.94;106125;1278;24086;-73
2022/03/23 09:17:03;;;;;;;32.80;16.70;;;;;;;11.21;38.98;99885.64;106571;1277;22562;-72
2022/03/23 09:19:31;;;;;;;34.20;15.50;;;;;;;11.38;39.36;99879.34;106068;1278;137798;-73
2022/03/23 09:22:12;;;;;;;33.10;16.40;;;;;;;11.53;38.71;99877.17;105761;1281;22869;-72
2022/03/23 09:24:53;;;;;;;31.30;15.80;;;;;;;11.68;38.31;99874.77;105711;1278;137620;-74
2022/03/23 09:27:21;;;;;;;32.70;17.70;;;;;;;11.85;37.61;99881.36;105840;1281;22563;-74
2022/03/23 09:29:48;;;;;;;31.60;18.50;;;;;;;12.00;37.41;99878.19;105590;1281;137592;-74
2022/03/23 09:32:17;;;;;;;38.60;18.40;;;;;;;12.15;37.23;99873.40;105783;1281;22541;-74
2022/03/23 09:34:58;;;;;;;32.90;16.80;;;;;;;12.34;36.48;99871.53;105726;1280;25470;-74
2022/03/23 09:37:50;;;;;;;33.10;16.40;;;;;;;12.54;36.43;99866.66;105611;1281;137531;-74
2022/03/23 09:40:37;;;;;;;39.20;17.30;;;;;;;12.72;35.54;99862.98;105825;1281;22567;-73
2022/03/23 09:43:09;;;;;;;33.90;17.20;;;;;;;12.88;35.80;99858.02;105631;1281;137623;-72
2022/03/23 09:45:51;;;;;;;31.00;16.00;;;;;;;13.06;35.66;99858.30;105976;1281;25460;-73
2022/03/23 09:48:34;;;;;;;28.70;16.00;;;;;;;13.25;35.56;99853.77;105770;1278;137748;-73
2022/03/23 09:51:02;;;;;;;;;;;;;;;13.39;34.64;99843.77;105748;1281;22540;-73
2022/03/23 09:53:44;;;;;;;28.90;15.40;;;;;;;13.53;34.58;99842.84;105781;1281;22563;-73
2022/03/23 09:56:25;;;;;;;29.10;14.70;;;;;;;13.69;33.86;99834.59;105851;1281;137725;-73
2022/03/23 09:59:06;;;;;;;28.00;13.90;;;;;;;13.85;33.39;99834.54;105790;1281;22557;-73
2022/03/23 10:01:51;;;;;;;27.70;13.80;;;;;;;14.02;33.39;99828.98;105694;1281;138041;-73
2022/03/23 10:04:54;;;;;;;24.90;13.00;;;;;;;14.21;32.54;99823.42;105648;1280;22666;-73
2022/03/23 10:07:31;;;;;;;28.70;14.80;;;;;;;14.38;31.11;99820.08;105525;1277;137536;-72
2022/03/23 10:10:49;;;;;;;32.50;15.60;;;;;;;14.55;31.58;99821.30;105663;1277;24304;-72
2022/03/23 10:13:35;;;;;;;24.10;13.80;;;;;;;14.77;31.65;99813.89;105847;1277;137481;-73
2022/03/23 10:16:21;;;;;;;26.30;14.50;;;;;;;14.98;30.64;99813.04;105750;1277;22565;-72
2022/03/23 10:19:02;;;;;;;24.80;12.20;;;;;;;15.16;29.41;99807.88;105641;1281;137640;-73
2022/03/23 10:21:43;;;;;;;25.50;13.00;;;;;;;15.33;28.51;99800.17;105785;1279;22566;-72
2022/03/23 10:24:29;;;;;;;29.20;14.20;;;;;;;15.51;28.52;99795.87;105605;1279;137657;-72
2022/03/23 10:26:58;;;;;;;23.90;12.50;;;;;;;15.68;28.81;99791.67;106034;1281;22703;-72
2022/03/23 10:29:45;;;;;;;18.10;10.80;;;;;;;15.86;28.12;99790.13;105926;1278;25278;-72
2022/03/23 10:32:34;;;;;;;21.50;12.30;;;;;;;16.04;26.63;99781.42;105770;1281;138085;-72
2022/03/23 10:35:16;;;;;;;25.30;11.00;;;;;;;16.21;26.09;99783.41;105794;1280;22672;-72
2022/03/23 10:37:44;;;;;;;20.10;11.30;;;;;;;16.33;25.15;99777.95;105877;1278;137536;-72
2022/03/23 10:40:25;;;;;;;23.00;12.50;;;;;;;16.46;25.57;99773.42;105751;1279;22838;-72
2022/03/23 10:42:53;;;;;;;24.20;13.20;;;;;;;16.60;26.03;99769.02;105675;1280;137534;-72
2022/03/23 10:45:21;;;;;;;26.70;12.40;;;;;;;16.74;25.92;99767.50;105770;1280;25545;-72
2022/03/23 10:47:49;;;;;;;22.70;11.10;;;;;;;16.87;25.85;99760.67;105900;1277;22555;-72
2022/03/23 10:50:30;;;;;;;20.30;10.50;;;;;;;17.04;25.68;99756.71;105644;1277;138075;-72
2022/03/23 10:53:11;;;;;;;19.60;11.80;;;;;;;17.20;24.78;99749.42;105959;1278;22528;-71
2022/03/23 10:55:52;;;;;;;18.30;9.90;;;;;;;17.35;24.62;99748.93;105757;1278;137912;-72
2022/03/23 10:58:34;;;;;;;19.40;10.30;;;;;;;17.53;24.94;99751.00;105783;1280;32397;-71
2022/03/23 11:01:05;;;;;;;19.70;10.50;;;;;;;17.68;24.00;99743.17;105606;1279;137522;-71
2022/03/23 11:03:41;;;;;;;15.90;10.30;;;;;;;17.82;23.92;99737.52;105478;1281;300271;-72
2022/03/23 11:06:27;;;;;;;19.90;10.20;;;;;;;17.99;23.88;99735.89;105671;1279;138650;-72
2022/03/23 11:08:54;;;;;;;15.70;9.20;;;;;;;18.13;23.67;99732.42;105806;1279;22616;-72
2022/03/23 11:17:28;;;;;;;17.90;8.30;;;;;;;18.51;22.02;99713.48;105838;1279;25406;-71
2022/03/23 11:20:10;;;;;;;13.00;7.80;;;;;;;18.65;21.59;99711.41;105826;1277;137286;-71
2022/03/23 11:22:37;;;;;;;14.30;7.60;;;;;;;18.79;21.00;99706.42;105876;1277;22559;-71
2022/03/23 11:25:18;;;;;;;11.60;7.60;;;;;;;18.91;19.83;99699.87;105931;1278;137324;-71
2022/03/23 11:27:45;;;;;;;13.50;6.60;;;;;;;19.01;19.52;99695.50;105783;1280;25525;-71
2022/03/23 11:30:14;;;;;;;12.40;6.30;;;;;;;19.12;18.41;99687.13;105810;1279;25408;-71
2022/03/23 11:32:55;;;;;;;8.70;5.70;;;;;;;19.21;17.38;99680.27;105794;1278;137132;-71
2022/03/23 11:35:22;;;;;;;10.80;5.90;;;;;;;19.26;16.87;99680.48;105878;1277;24367;-71
2022/03/23 11:37:49;;;;;;;10.10;6.00;;;;;;;19.34;17.45;99675.59;105823;1278;137786;-71
2022/03/23 11:40:17;;;;;;;25.40;5.90;;;;;;;19.45;17.19;99670.15;105861;1278;24404;-71
2022/03/23 11:42:58;;;;;;;12.60;5.80;;;;;;;19.55;17.77;99665.02;105799;1278;137494;-72
2022/03/23 11:45:25;;;;;;;13.00;6.30;;;;;;;19.68;17.70;99660.71;105645;1279;25374;-71
2022/03/23 11:48:01;;;;;;;10.20;6.40;;;;;;;19.79;16.81;99653.34;105666;1279;25304;-71
2022/03/23 11:51:13;;;;;;;8.80;5.80;;;;;;;19.89;15.73;99648.80;105700;1280;137434;-72
2022/03/23 11:54:02;;;;;;;8.20;5.70;;;;;;;19.97;15.79;99644.98;105724;1279;25485;-71
2022/03/23 11:57:00;;;;;;;8.30;5.60;;;;;;;20.09;16.14;99633.24;105683;1279;137403;-72
2022/03/23 11:59:43;;;;;;;11.00;5.70;;;;;;;20.23;16.19;99632.73;105927;1280;31633;-72